sensor_id;sensor_type;location;lat;lon;timestamp;pressure;altitude;pressure_sealevel;temperature;humidity
78094;BME280;67327;37.152;-76.406;2023-02-10T08:38:07;101352.89;;;42.08;9.85
78094;BME280;67327;37.152;-76.406;2023-02-10T08:40:32;101345.93;;;42.32;9.84
78094;BME280;67327;37.152;-76.406;2023-02-10T08:42:57;101348.69;;;42.09;9.85
78094;BME280;67327;37.152;-76.406;2023-02-10T08:45:21;101347.92;;;42.09;9.85
78094;BME280;67327;37.152;-76.406;2023-02-10T08:47:47;101342.45;;;42.08;9.84
78094;BME280;67327;37.152;-76.406;2023-02-10T08:50:12;101345.37;;;42.08;9.85
78094;BME280;67327;37.152;-76.406;2023-02-10T08:52:37;101340.60;;;42.09;9.83
78094;BME280;67327;37.152;-76.406;2023-02-10T08:55:02;101336.63;;;42.09;9.82
78094;BME280;67327;37.152;-76.406;2023-02-10T08:57:27;101337.13;;;42.33;9.83
78094;BME280;67327;37.152;-76.406;2023-02-10T08:59:52;101336.57;;;42.08;9.82
78094;BME280;67327;37.152;-76.406;2023-02-10T09:02:17;101348.42;;;42.32;9.81
78094;BME280;67327;37.152;-76.406;2023-02-10T09:04:42;101355.17;;;42.31;9.82
78094;BME280;67327;37.152;-76.406;2023-02-10T09:07:07;101363.77;;;42.06;9.85
78094;BME280;67327;37.152;-76.406;2023-02-10T09:09:37;101368.90;;;42.06;9.84
78094;BME280;67327;37.152;-76.406;2023-02-10T09:11:57;101375.22;;;41.85;9.84
78094;BME280;67327;37.152;-76.406;2023-02-10T09:14:23;101375.86;;;41.87;9.83
78094;BME280;67327;37.152;-76.406;2023-02-10T09:16:48;101373.18;;;42.35;9.85
78094;BME280;67327;37.152;-76.406;2023-02-10T09:19:13;101377.47;;;42.33;9.82
78094;BME280;67327;37.152;-76.406;2023-02-10T09:21:38;101381.34;;;42.07;9.85
78094;BME280;67327;37.152;-76.406;2023-02-10T09:24:03;101382.86;;;42.29;9.87
78094;BME280;67327;37.152;-76.406;2023-02-10T09:26:28;101387.83;;;42.28;9.88
78094;BME280;67327;37.152;-76.406;2023-02-10T09:28:53;101389.82;;;42.05;9.87
78094;BME280;67327;37.152;-76.406;2023-02-10T09:31:18;101393.82;;;42.28;9.89
78094;BME280;67327;37.152;-76.406;2023-02-10T09:33:43;101387.38;;;42.28;9.88
78094;BME280;67327;37.152;-76.406;2023-02-10T09:36:13;101390.33;;;42.03;9.89
78094;BME280;67327;37.152;-76.406;2023-02-10T09:38:33;101393.04;;;42.27;9.89
78094;BME280;67327;37.152;-76.406;2023-02-10T09:41:06;101402.09;;;41.97;9.92
78094;BME280;67327;37.152;-76.406;2023-02-10T09:45:56;101400.24;;;42.13;9.92
78094;BME280;67327;37.152;-76.406;2023-02-10T09:48:22;101399.68;;;42.10;9.96
78094;BME280;67327;37.152;-76.406;2023-02-10T09:50:47;101399.73;;;42.09;9.97
78094;BME280;67327;37.152;-76.406;2023-02-10T09:53:11;101400.61;;;42.10;9.95
78094;BME280;67327;37.152;-76.406;2023-02-10T09:55:32;101396.10;;;41.86;9.95
78094;BME280;67327;37.152;-76.406;2023-02-10T09:57:59;101403.96;;;41.85;9.96
78094;BME280;67327;37.152;-76.406;2023-02-10T10:00:26;101399.92;;;42.08;9.96
78094;BME280;67327;37.152;-76.406;2023-02-10T10:02:48;101403.69;;;42.08;9.95
78094;BME280;67327;37.152;-76.406;2023-02-10T10:05:16;101399.29;;;42.07;9.96
78094;BME280;67327;37.152;-76.406;2023-02-10T10:07:36;101401.92;;;41.82;9.96
78094;BME280;67327;37.152;-76.406;2023-02-10T10:10:02;101403.22;;;42.05;9.95
78094;BME280;67327;37.152;-76.406;2023-02-10T10:12:24;101397.55;;;41.79;9.94
78094;BME280;67327;37.152;-76.406;2023-02-10T10:14:50;101397.25;;;42.02;9.95
78094;BME280;67327;37.152;-76.406;2023-02-10T10:17:27;101399.69;;;41.76;9.97
78094;BME280;67327;37.152;-76.406;2023-02-10T10:19:54;101407.44;;;41.77;9.98
78094;BME280;67327;37.152;-76.406;2023-02-10T10:22:16;101412.95;;;41.77;10.00
78094;BME280;67327;37.152;-76.406;2023-02-10T10:24:42;101406.47;;;41.76;9.98
78094;BME280;67327;37.152;-76.406;2023-02-10T10:27:02;101402.08;;;42.02;9.97
78094;BME280;67327;37.152;-76.406;2023-02-10T10:29:26;101400.50;;;42.01;9.96
78094;BME280;67327;37.152;-76.406;2023-02-10T10:31:46;101394.94;;;42.01;9.97
78094;BME280;67327;37.152;-76.406;2023-02-10T10:34:13;101388.79;;;41.76;9.96
78094;BME280;67327;37.152;-76.406;2023-02-10T10:36:37;101399.99;;;41.99;9.97
78094;BME280;67327;37.152;-76.406;2023-02-10T10:39:09;101400.28;;;41.73;9.98
78094;BME280;67327;37.152;-76.406;2023-02-10T10:41:28;101405.23;;;41.95;9.97
78094;BME280;67327;37.152;-76.406;2023-02-10T10:43:52;101407.27;;;41.94;9.98
78094;BME280;67327;37.152;-76.406;2023-02-10T10:46:21;101412.31;;;41.93;9.99
78094;BME280;67327;37.152;-76.406;2023-02-10T10:48:41;101407.00;;;41.68;9.99
78094;BME280;67327;37.152;-76.406;2023-02-10T10:51:06;101410.61;;;41.68;9.98
78094;BME280;67327;37.152;-76.406;2023-02-10T10:53:37;101419.96;;;41.92;9.99
78094;BME280;67327;37.152;-76.406;2023-02-10T10:55:56;101418.35;;;41.93;10.01
78094;BME280;67327;37.152;-76.406;2023-02-10T10:58:25;101419.96;;;41.70;9.97
78094;BME280;67327;37.152;-76.406;2023-02-10T11:00:50;101420.39;;;41.94;10.00
78094;BME280;67327;37.152;-76.406;2023-02-10T11:03:16;101427.68;;;41.71;10.00
78094;BME280;67327;37.152;-76.406;2023-02-10T11:05:37;101433.88;;;41.72;10.00
78094;BME280;67327;37.152;-76.406;2023-02-10T11:08:02;101427.64;;;41.71;10.00
78094;BME280;67327;37.152;-76.406;2023-02-10T11:10:31;101424.36;;;41.46;9.99
78094;BME280;67327;37.152;-76.406;2023-02-10T11:12:52;101423.73;;;41.95;9.99
78094;BME280;67327;37.152;-76.406;2023-02-10T11:15:27;101421.97;;;41.94;10.01
78094;BME280;67327;37.152;-76.406;2023-02-10T11:17:42;101426.66;;;41.95;9.98
78094;BME280;67327;37.152;-76.406;2023-02-10T11:22:32;101424.89;;;41.96;9.97
78094;BME280;67327;37.152;-76.406;2023-02-10T11:24:58;101427.95;;;41.95;9.97
78094;BME280;67327;37.152;-76.406;2023-02-10T11:27:23;101428.56;;;41.72;9.94
78094;BME280;67327;37.152;-76.406;2023-02-10T11:29:48;101426.40;;;41.94;9.96
78094;BME280;67327;37.152;-76.406;2023-02-10T11:32:19;101424.35;;;41.69;9.96
78094;BME280;67327;37.152;-76.406;2023-02-10T11:34:42;101431.32;;;41.94;9.96
78094;BME280;67327;37.152;-76.406;2023-02-10T11:37:09;101433.09;;;41.96;9.95
78094;BME280;67327;37.152;-76.406;2023-02-10T11:39:31;101437.61;;;41.95;9.95
78094;BME280;67327;37.152;-76.406;2023-02-10T11:41:53;101441.23;;;41.70;9.94
78094;BME280;67327;37.152;-76.406;2023-02-10T11:44:26;101441.33;;;41.93;9.94
78094;BME280;67327;37.152;-76.406;2023-02-10T11:46:43;101440.79;;;41.93;9.95
78094;BME280;67327;37.152;-76.406;2023-02-10T11:49:17;101440.18;;;41.69;9.95
78094;BME280;67327;37.152;-76.406;2023-02-10T11:51:33;101438.96;;;41.92;9.95
78094;BME280;67327;37.152;-76.406;2023-02-10T11:53:59;101439.72;;;41.91;9.95
78094;BME280;67327;37.152;-76.406;2023-02-10T11:56:28;101437.39;;;41.91;9.93
78094;BME280;67327;37.152;-76.406;2023-02-10T11:58:59;101446.32;;;41.92;9.93
78094;BME280;67327;37.152;-76.406;2023-02-10T12:01:19;101456.40;;;41.94;9.92
78094;BME280;67327;37.152;-76.406;2023-02-10T12:03:50;101456.73;;;41.71;9.94
78094;BME280;67327;37.152;-76.406;2023-02-10T12:06:07;101464.82;;;41.72;9.94
78094;BME280;67327;37.152;-76.406;2023-02-10T12:08:33;101469.16;;;41.96;9.94
78094;BME280;67327;37.152;-76.406;2023-02-10T12:10:57;101475.17;;;41.70;9.96
78094;BME280;67327;37.152;-76.406;2023-02-10T12:13:27;101475.47;;;41.45;9.98
78094;BME280;67327;37.152;-76.406;2023-02-10T12:15:51;101484.22;;;41.92;9.99
78094;BME280;67327;37.152;-76.406;2023-02-10T12:18:22;101503.13;;;41.67;10.03
78094;BME280;67327;37.152;-76.406;2023-02-10T12:20:43;101512.30;;;41.92;10.02
78094;BME280;67327;37.152;-76.406;2023-02-10T12:23:22;101508.11;;;41.69;10.03
78094;BME280;67327;37.152;-76.406;2023-02-10T12:25:28;101504.38;;;41.94;10.04
78094;BME280;67327;37.152;-76.406;2023-02-10T12:27:57;101511.66;;;41.93;10.06
78094;BME280;67327;37.152;-76.406;2023-02-10T12:30:23;101514.53;;;41.90;10.08
78094;BME280;67327;37.152;-76.406;2023-02-10T12:32:48;101519.38;;;41.65;10.10
78094;BME280;67327;37.152;-76.406;2023-02-10T12:35:16;101520.12;;;41.69;10.09
78094;BME280;67327;37.152;-76.406;2023-02-10T12:37:37;101517.39;;;41.94;10.08
78094;BME280;67327;37.152;-76.406;2023-02-10T12:40:19;101510.47;;;41.70;10.12
78094;BME280;67327;37.152;-76.406;2023-02-10T12:42:32;101512.30;;;41.94;10.11
78094;BME280;67327;37.152;-76.406;2023-02-10T12:44:52;101519.40;;;41.94;10.11
78094;BME280;67327;37.152;-76.406;2023-02-10T12:47:20;101519.85;;;41.71;10.12
78094;BME280;67327;37.152;-76.406;2023-02-10T12:49:44;101519.49;;;41.95;10.12
78094;BME280;67327;37.152;-76.406;2023-02-10T12:52:05;101524.45;;;41.94;10.14
78094;BME280;67327;37.152;-76.406;2023-02-10T12:54:30;101520.79;;;41.93;10.14
78094;BME280;67327;37.152;-76.406;2023-02-10T12:56:54;101520.29;;;41.93;10.17
78094;BME280;67327;37.152;-76.406;2023-02-10T12:59:18;101519.69;;;41.95;10.15
78094;BME280;67327;37.152;-76.406;2023-02-10T13:01:44;101526.40;;;41.71;10.17
78094;BME280;67327;37.152;-76.406;2023-02-10T13:04:08;101526.30;;;41.94;10.18
78094;BME280;67327;37.152;-76.406;2023-02-10T13:06:36;101532.12;;;41.94;10.20
78094;BME280;67327;37.152;-76.406;2023-02-10T13:09:01;101530.41;;;41.71;10.20
78094;BME280;67327;37.152;-76.406;2023-02-10T13:11:29;101528.01;;;41.97;10.18
78094;BME280;67327;37.152;-76.406;2023-02-10T13:13:47;101523.77;;;41.99;10.16
78094;BME280;67327;37.152;-76.406;2023-02-10T13:16:14;101526.52;;;41.76;10.16
78094;BME280;67327;37.152;-76.406;2023-02-10T13:18:42;101537.61;;;41.76;10.17
78094;BME280;67327;37.152;-76.406;2023-02-10T13:21:06;101536.31;;;42.01;10.17
78094;BME280;67327;37.152;-76.406;2023-02-10T13:23:31;101534.47;;;42.01;10.17
78094;BME280;67327;37.152;-76.406;2023-02-10T13:26:12;101542.88;;;41.79;10.13
78094;BME280;67327;37.152;-76.406;2023-02-10T13:28:24;101543.23;;;41.80;10.14
78094;BME280;67327;37.152;-76.406;2023-02-10T13:33:13;101544.59;;;41.84;10.14
78094;BME280;67327;37.152;-76.406;2023-02-10T13:35:32;101546.60;;;41.86;10.13
78094;BME280;67327;37.152;-76.406;2023-02-10T13:37:58;101541.99;;;41.86;10.14
78094;BME280;67327;37.152;-76.406;2023-02-10T13:40:23;101545.64;;;41.86;10.14
78094;BME280;67327;37.152;-76.406;2023-02-10T13:42:49;101545.16;;;42.11;10.13
78094;BME280;67327;37.152;-76.406;2023-02-10T13:45:16;101549.82;;;42.12;10.13
78094;BME280;67327;37.152;-76.406;2023-02-10T13:47:38;101551.19;;;41.88;10.15
78094;BME280;67327;37.152;-76.406;2023-02-10T13:50:06;101555.10;;;41.87;10.13
78094;BME280;67327;37.152;-76.406;2023-02-10T13:52:29;101556.10;;;42.12;10.12
78094;BME280;67327;37.152;-76.406;2023-02-10T13:54:56;101554.88;;;42.12;10.14
78094;BME280;67327;37.152;-76.406;2023-02-10T13:57:24;101556.55;;;42.12;10.13
78094;BME280;67327;37.152;-76.406;2023-02-10T13:59:42;101555.25;;;42.11;10.15
78094;BME280;67327;37.152;-76.406;2023-02-10T14:02:17;101562.89;;;41.87;10.15
78094;BME280;67327;37.152;-76.406;2023-02-10T14:04:38;101566.33;;;42.15;10.11
78094;BME280;67327;37.152;-76.406;2023-02-10T14:06:57;101562.83;;;41.92;10.09
78094;BME280;67327;37.152;-76.406;2023-02-10T14:09:32;101561.45;;;42.12;10.11
78094;BME280;67327;37.152;-76.406;2023-02-10T14:11:50;101565.30;;;42.15;10.14
78094;BME280;67327;37.152;-76.406;2023-02-10T14:14:20;101566.67;;;42.16;10.16
78094;BME280;67327;37.152;-76.406;2023-02-10T14:16:40;101549.14;;;41.93;10.17
78094;BME280;67327;37.152;-76.406;2023-02-10T14:19:05;101555.02;;;42.16;10.19
78094;BME280;67327;37.152;-76.406;2023-02-10T14:21:37;101556.63;;;41.93;10.22
78094;BME280;67327;37.152;-76.406;2023-02-10T14:23:55;101550.70;;;42.18;10.24
78094;BME280;67327;37.152;-76.406;2023-02-10T14:26:20;101559.48;;;42.19;10.23
78094;BME280;67327;37.152;-76.406;2023-02-10T14:28:47;101563.85;;;41.96;10.24
78094;BME280;67327;37.152;-76.406;2023-02-10T14:31:13;101564.08;;;41.97;10.26
78094;BME280;67327;37.152;-76.406;2023-02-10T14:33:35;101567.95;;;42.22;10.27
78094;BME280;67327;37.152;-76.406;2023-02-10T14:36:00;101565.71;;;41.99;10.27
78094;BME280;67327;37.152;-76.406;2023-02-10T14:38:26;101562.82;;;41.99;10.28
78094;BME280;67327;37.152;-76.406;2023-02-10T14:40:50;101555.52;;;42.23;10.28
78094;BME280;67327;37.152;-76.406;2023-02-10T14:43:18;101555.29;;;42.23;10.28
78094;BME280;67327;37.152;-76.406;2023-02-10T14:45:39;101560.40;;;42.23;10.30
78094;BME280;67327;37.152;-76.406;2023-02-10T14:48:06;101554.00;;;41.99;10.29
78094;BME280;67327;37.152;-76.406;2023-02-10T14:50:31;101551.64;;;42.22;10.28
78094;BME280;67327;37.152;-76.406;2023-02-10T14:52:55;101552.63;;;42.20;10.31
78094;BME280;67327;37.152;-76.406;2023-02-10T14:55:26;101551.46;;;41.95;10.30
78094;BME280;67327;37.152;-76.406;2023-02-10T14:57:45;101549.26;;;41.94;10.31
78094;BME280;67327;37.152;-76.406;2023-02-10T15:00:14;101556.18;;;42.20;10.30
78094;BME280;67327;37.152;-76.406;2023-02-10T15:02:35;101559.86;;;42.20;10.34
78094;BME280;67327;37.152;-76.406;2023-02-10T15:05:02;101557.56;;;41.97;10.31
78094;BME280;67327;37.152;-76.406;2023-02-10T15:07:27;101549.08;;;41.96;10.30
78094;BME280;67327;37.152;-76.406;2023-02-10T15:09:51;101552.63;;;42.22;10.31
78094;BME280;67327;37.152;-76.406;2023-02-10T15:12:16;101561.82;;;41.99;10.32
78094;BME280;67327;37.152;-76.406;2023-02-10T15:14:44;101560.58;;;41.99;10.31
78094;BME280;67327;37.152;-76.406;2023-02-10T15:17:08;101560.12;;;42.23;10.31
78094;BME280;67327;37.152;-76.406;2023-02-10T15:19:30;101564.86;;;42.00;10.31
78094;BME280;67327;37.152;-76.406;2023-02-10T15:21:55;101564.39;;;41.99;10.33
78094;BME280;67327;37.152;-76.406;2023-02-10T15:24:24;101558.71;;;42.24;10.32
78094;BME280;67327;37.152;-76.406;2023-02-10T15:26:45;101560.85;;;42.24;10.33
78094;BME280;67327;37.152;-76.406;2023-02-10T15:29:13;101565.85;;;42.25;10.33
78094;BME280;67327;37.152;-76.406;2023-02-10T15:31:36;101568.40;;;42.25;10.32
78094;BME280;67327;37.152;-76.406;2023-02-10T15:34:02;101576.19;;;41.77;10.32
78094;BME280;67327;37.152;-76.406;2023-02-10T15:36:27;101574.13;;;42.03;10.31
78094;BME280;67327;37.152;-76.406;2023-02-10T15:38:56;101565.47;;;42.28;10.31
78094;BME280;67327;37.152;-76.406;2023-02-10T15:41:30;101571.47;;;42.07;10.29
78094;BME280;67327;37.152;-76.406;2023-02-10T15:43:46;101574.59;;;42.10;10.27
78094;BME280;67327;37.152;-76.406;2023-02-10T15:48:31;101571.09;;;42.36;10.25
78094;BME280;67327;37.152;-76.406;2023-02-10T15:50:57;101568.63;;;42.35;10.27
78094;BME280;67327;37.152;-76.406;2023-02-10T15:53:21;101568.44;;;41.87;10.26
78094;BME280;67327;37.152;-76.406;2023-02-10T15:55:47;101574.60;;;42.37;10.25
78094;BME280;67327;37.152;-76.406;2023-02-10T15:58:12;101573.32;;;42.16;10.24
78094;BME280;67327;37.152;-76.406;2023-02-10T16:00:38;101568.46;;;42.44;10.22
78094;BME280;67327;37.152;-76.406;2023-02-10T16:03:02;101561.30;;;42.20;10.21
78094;BME280;67327;37.152;-76.406;2023-02-10T16:05:28;101559.55;;;42.21;10.22
78094;BME280;67327;37.152;-76.406;2023-02-10T16:07:52;101558.84;;;42.44;10.20
78094;BME280;67327;37.152;-76.406;2023-02-10T16:10:20;101562.64;;;41.96;10.19
78094;BME280;67327;37.152;-76.406;2023-02-10T16:12:42;101560.47;;;42.22;10.20
78094;BME280;67327;37.152;-76.406;2023-02-10T16:15:11;101556.01;;;42.47;10.18
78094;BME280;67327;37.152;-76.406;2023-02-10T16:17:37;101558.91;;;42.49;10.16
78094;BME280;67327;37.152;-76.406;2023-02-10T16:19:57;101559.27;;;42.26;10.14
78094;BME280;67327;37.152;-76.406;2023-02-10T16:22:22;101559.34;;;42.28;10.14
78094;BME280;67327;37.152;-76.406;2023-02-10T16:24:47;101559.75;;;42.29;10.13
78094;BME280;67327;37.152;-76.406;2023-02-10T16:27:12;101556.95;;;42.31;10.14
78094;BME280;67327;37.152;-76.406;2023-02-10T16:29:38;101551.76;;;42.33;10.12
78094;BME280;67327;37.152;-76.406;2023-02-10T16:32:03;101554.05;;;42.36;10.09
78094;BME280;67327;37.152;-76.406;2023-02-10T16:34:28;101560.01;;;42.12;10.05
78094;BME280;67327;37.152;-76.406;2023-02-10T16:36:53;101555.67;;;42.37;10.06
78094;BME280;67327;37.152;-76.406;2023-02-10T16:39:20;101546.68;;;42.41;10.06
78094;BME280;67327;37.152;-76.406;2023-02-10T16:41:44;101547.35;;;42.44;10.02
78094;BME280;67327;37.152;-76.406;2023-02-10T16:44:08;101545.60;;;42.46;10.00
78094;BME280;67327;37.152;-76.406;2023-02-10T16:46:33;101544.45;;;42.24;9.97
78094;BME280;67327;37.152;-76.406;2023-02-10T16:48:58;101545.00;;;42.26;9.98
78094;BME280;67327;37.152;-76.406;2023-02-10T16:51:23;101548.23;;;42.52;9.96
78094;BME280;67327;37.152;-76.406;2023-02-10T16:53:48;101544.31;;;42.53;9.96
78094;BME280;67327;37.152;-76.406;2023-02-10T16:56:15;101536.84;;;42.53;9.92
78094;BME280;67327;37.152;-76.406;2023-02-10T16:58:38;101532.47;;;42.55;9.91
78094;BME280;67327;37.152;-76.406;2023-02-10T17:01:04;101525.92;;;42.58;9.88
78094;BME280;67327;37.152;-76.406;2023-02-10T17:03:29;101524.89;;;42.61;9.88
78094;BME280;67327;37.152;-76.406;2023-02-10T17:05:54;101523.80;;;42.39;9.86
78094;BME280;67327;37.152;-76.406;2023-02-10T17:08:19;101526.37;;;42.89;9.84
78094;BME280;67327;37.152;-76.406;2023-02-10T17:10:44;101525.87;;;42.69;9.83
78094;BME280;67327;37.152;-76.406;2023-02-10T17:13:09;101524.41;;;42.47;9.81
78094;BME280;67327;37.152;-76.406;2023-02-10T17:15:34;101522.55;;;42.52;9.79
78094;BME280;67327;37.152;-76.406;2023-02-10T17:17:59;101522.23;;;43.05;9.76
78094;BME280;67327;37.152;-76.406;2023-02-10T17:20:27;101526.58;;;42.85;9.73
78094;BME280;67327;37.152;-76.406;2023-02-10T17:22:49;101527.63;;;42.85;9.71
78094;BME280;67327;37.152;-76.406;2023-02-10T17:25:15;101528.06;;;42.88;9.71
78094;BME280;67327;37.152;-76.406;2023-02-10T17:27:40;101522.83;;;42.64;9.70
78094;BME280;67327;37.152;-76.406;2023-02-10T17:30:05;101520.19;;;43.14;9.72
78094;BME280;67327;37.152;-76.406;2023-02-10T17:32:30;101516.20;;;42.69;9.70
78094;BME280;67327;37.152;-76.406;2023-02-10T17:34:55;101511.38;;;42.71;9.69
78094;BME280;67327;37.152;-76.406;2023-02-10T17:37:20;101514.01;;;42.72;9.66
78094;BME280;67327;37.152;-76.406;2023-02-10T17:39:45;101510.17;;;42.73;9.66
78094;BME280;67327;37.152;-76.406;2023-02-10T17:42:10;101510.40;;;42.74;9.64
78094;BME280;67327;37.152;-76.406;2023-02-10T17:44:36;101509.98;;;42.76;9.64
78094;BME280;67327;37.152;-76.406;2023-02-10T17:47:00;101510.77;;;42.80;9.62
78094;BME280;67327;37.152;-76.406;2023-02-10T17:49:27;101512.87;;;42.82;9.61
78094;BME280;67327;37.152;-76.406;2023-02-10T17:51:50;101507.86;;;42.84;9.60
78094;BME280;67327;37.152;-76.406;2023-02-10T17:54:15;101509.93;;;43.10;9.60
78094;BME280;67327;37.152;-76.406;2023-02-10T17:56:40;101515.17;;;43.12;9.59
78094;BME280;67327;37.152;-76.406;2023-02-10T17:59:05;101516.38;;;42.90;9.55
78094;BME280;67327;37.152;-76.406;2023-02-10T18:01:31;101512.53;;;42.92;9.56
78094;BME280;67327;37.152;-76.406;2023-02-10T18:03:56;101515.93;;;42.93;9.58
78094;BME280;67327;37.152;-76.406;2023-02-10T18:06:21;101514.84;;;43.19;9.58
78094;BME280;67327;37.152;-76.406;2023-02-10T18:08:47;101509.86;;;42.97;9.56
78094;BME280;67327;37.152;-76.406;2023-02-10T18:11:11;101502.16;;;43.02;9.55
78094;BME280;67327;37.152;-76.406;2023-02-10T18:13:36;101501.32;;;43.05;9.53
78094;BME280;67327;37.152;-76.406;2023-02-10T18:16:01;101499.90;;;43.10;9.53
78094;BME280;67327;37.152;-76.406;2023-02-10T18:18:26;101500.04;;;42.91;9.51
78094;BME280;67327;37.152;-76.406;2023-02-10T18:20:51;101499.36;;;43.20;9.48
78094;BME280;67327;37.152;-76.406;2023-02-10T18:23:16;101498.09;;;43.01;9.47
78094;BME280;67327;37.152;-76.406;2023-02-10T18:25:41;101502.00;;;43.31;9.46
78094;BME280;67327;37.152;-76.406;2023-02-10T18:28:07;101503.38;;;43.37;9.44
78094;BME280;67327;37.152;-76.406;2023-02-10T18:30:32;101508.24;;;43.47;9.42
78094;BME280;67327;37.152;-76.406;2023-02-10T18:32:56;101507.92;;;43.54;9.39
78094;BME280;67327;37.152;-76.406;2023-02-10T18:35:22;101507.90;;;43.61;9.36
78094;BME280;67327;37.152;-76.406;2023-02-10T18:37:47;101508.08;;;43.42;9.33
78094;BME280;67327;37.152;-76.406;2023-02-10T18:40:12;101500.50;;;43.70;9.33
78094;BME280;67327;37.152;-76.406;2023-02-10T18:42:37;101525.04;;;43.74;9.32
78094;BME280;67327;37.152;-76.406;2023-02-10T18:45:02;101533.77;;;43.79;9.31
78094;BME280;67327;37.152;-76.406;2023-02-10T18:47:27;101533.93;;;43.86;9.29
78094;BME280;67327;37.152;-76.406;2023-02-10T18:49:52;101531.04;;;43.91;9.29
78094;BME280;67327;37.152;-76.406;2023-02-10T18:52:17;101518.85;;;43.50;9.26
78094;BME280;67327;37.152;-76.406;2023-02-10T18:54:44;101519.43;;;43.78;9.26
78094;BME280;67327;37.152;-76.406;2023-02-10T18:57:07;101528.38;;;44.08;9.23
78094;BME280;67327;37.152;-76.406;2023-02-10T18:59:32;101526.61;;;43.89;9.23
78094;BME280;67327;37.152;-76.406;2023-02-10T19:01:57;101524.75;;;43.91;9.22
78094;BME280;67327;37.152;-76.406;2023-02-10T19:04:23;101522.87;;;43.93;9.19
78094;BME280;67327;37.152;-76.406;2023-02-10T19:06:48;101530.70;;;43.72;9.20
78094;BME280;67327;37.152;-76.406;2023-02-10T19:09:13;101529.39;;;43.75;9.18
78094;BME280;67327;37.152;-76.406;2023-02-10T19:11:38;101533.83;;;44.02;9.18
78094;BME280;67327;37.152;-76.406;2023-02-10T19:14:03;101540.58;;;43.79;9.18
78094;BME280;67327;37.152;-76.406;2023-02-10T19:16:28;101538.77;;;43.79;9.17
78094;BME280;67327;37.152;-76.406;2023-02-10T19:18:53;101536.33;;;43.80;9.17
78094;BME280;67327;37.152;-76.406;2023-02-10T19:21:18;101536.57;;;44.28;9.16
78094;BME280;67327;37.152;-76.406;2023-02-10T19:23:44;101539.77;;;43.81;9.17
78094;BME280;67327;37.152;-76.406;2023-02-10T19:26:10;101540.54;;;43.82;9.16
78094;BME280;67327;37.152;-76.406;2023-02-10T19:28:33;101535.90;;;43.84;9.15
78094;BME280;67327;37.152;-76.406;2023-02-10T19:31:00;101539.84;;;43.84;9.14
78094;BME280;67327;37.152;-76.406;2023-02-10T19:33:23;101542.69;;;43.83;9.15
78094;BME280;67327;37.152;-76.406;2023-02-10T19:35:49;101543.89;;;44.05;9.17
78094;BME280;67327;37.152;-76.406;2023-02-10T19:38:14;101553.62;;;43.83;9.17
78094;BME280;67327;37.152;-76.406;2023-02-10T19:40:39;101550.56;;;43.83;9.18
78094;BME280;67327;37.152;-76.406;2023-02-10T19:43:04;101552.60;;;43.82;9.17
78094;BME280;67327;37.152;-76.406;2023-02-10T19:45:29;101557.86;;;43.82;9.17
78094;BME280;67327;37.152;-76.406;2023-02-10T19:47:54;101556.12;;;43.81;9.19
78094;BME280;67327;37.152;-76.406;2023-02-10T19:50:19;101563.91;;;44.03;9.18
78094;BME280;67327;37.152;-76.406;2023-02-10T19:52:44;101572.31;;;43.79;9.20
78094;BME280;67327;37.152;-76.406;2023-02-10T19:55:09;101579.71;;;43.79;9.20
78094;BME280;67327;37.152;-76.406;2023-02-10T19:57:34;101581.87;;;44.02;9.19
78094;BME280;67327;37.152;-76.406;2023-02-10T19:59:59;101575.17;;;43.80;9.19
78094;BME280;67327;37.152;-76.406;2023-02-10T20:02:25;101582.14;;;43.82;9.18
78094;BME280;67327;37.152;-76.406;2023-02-10T20:04:50;101586.99;;;43.84;9.16
78094;BME280;67327;37.152;-76.406;2023-02-10T20:07:15;101588.10;;;43.87;9.13
78094;BME280;67327;37.152;-76.406;2023-02-10T20:09:40;101587.66;;;44.15;9.11
78094;BME280;67327;37.152;-76.406;2023-02-10T20:12:06;101590.64;;;43.93;9.10
78094;BME280;67327;37.152;-76.406;2023-02-10T20:14:30;101584.27;;;43.96;9.07
78094;BME280;67327;37.152;-76.406;2023-02-10T20:16:55;101596.51;;;43.97;9.08
78094;BME280;67327;37.152;-76.406;2023-02-10T20:19:20;101603.00;;;43.95;9.08
78094;BME280;67327;37.152;-76.406;2023-02-10T20:21:46;101608.50;;;43.95;9.08
78094;BME280;67327;37.152;-76.406;2023-02-10T20:24:11;101612.17;;;43.97;9.10
78094;BME280;67327;37.152;-76.406;2023-02-10T20:26:35;101609.58;;;43.99;9.08
78094;BME280;67327;37.152;-76.406;2023-02-10T20:29:00;101605.49;;;43.99;9.07
78094;BME280;67327;37.152;-76.406;2023-02-10T20:31:26;101608.38;;;44.01;9.06
78094;BME280;67327;37.152;-76.406;2023-02-10T20:33:51;101609.68;;;44.03;9.04
78094;BME280;67327;37.152;-76.406;2023-02-10T20:36:17;101614.38;;;44.04;9.02
78094;BME280;67327;37.152;-76.406;2023-02-10T20:38:41;101621.90;;;44.06;9.01
78094;BME280;67327;37.152;-76.406;2023-02-10T20:41:06;101621.77;;;44.09;9.01
78094;BME280;67327;37.152;-76.406;2023-02-10T20:43:31;101627.20;;;44.09;9.01
78094;BME280;67327;37.152;-76.406;2023-02-10T20:45:56;101631.23;;;44.10;8.99
78094;BME280;67327;37.152;-76.406;2023-02-10T20:48:21;101634.95;;;44.13;8.98
78094;BME280;67327;37.152;-76.406;2023-02-10T20:50:47;101642.89;;;44.39;8.99
78094;BME280;67327;37.152;-76.406;2023-02-10T20:53:11;101644.67;;;44.16;8.98
78094;BME280;67327;37.152;-76.406;2023-02-10T20:55:37;101642.59;;;44.19;8.99
78094;BME280;67327;37.152;-76.406;2023-02-10T20:58:01;101638.02;;;44.23;8.97
78094;BME280;67327;37.152;-76.406;2023-02-10T21:00:27;101641.99;;;44.26;8.97
78094;BME280;67327;37.152;-76.406;2023-02-10T21:02:54;101648.51;;;44.27;8.97
78094;BME280;67327;37.152;-76.406;2023-02-10T21:05:17;101651.50;;;44.26;8.97
78094;BME280;67327;37.152;-76.406;2023-02-10T21:07:42;101656.00;;;44.26;8.96
78094;BME280;67327;37.152;-76.406;2023-02-10T21:10:07;101662.05;;;44.31;8.93